createdAt,value
2018-04-30T00:00:34.912Z,17.60
2018-04-30T00:03:03.090Z,18.63
2018-04-30T00:05:31.207Z,20.50
2018-04-30T00:07:59.297Z,18.77
2018-04-30T00:10:27.399Z,19.52
2018-04-30T00:12:55.515Z,17.23
2018-04-30T00:15:23.642Z,19.07
2018-04-30T00:17:51.733Z,17.50
2018-04-30T00:20:19.844Z,21.20
2018-04-30T00:22:47.933Z,19.37
2018-04-30T00:25:16.156Z,19.70
2018-04-30T00:27:44.333Z,22.75
2018-04-30T00:30:12.472Z,20.05
2018-04-30T00:32:40.582Z,18.90
2018-04-30T00:35:09.037Z,16.37
2018-04-30T00:37:37.142Z,19.33
2018-04-30T00:40:05.231Z,17.67
2018-04-30T00:42:33.368Z,19.00
2018-04-30T00:45:01.483Z,18.50
2018-04-30T00:47:29.609Z,18.77
2018-04-30T00:49:57.707Z,18.75
2018-04-30T00:52:25.797Z,14.93
2018-04-30T00:55:00.247Z,21.37
2018-04-30T00:57:28.330Z,16.67
2018-04-30T00:59:56.453Z,16.95
2018-04-30T01:02:24.613Z,16.70
2018-04-30T01:04:52.751Z,15.47
2018-04-30T01:07:20.877Z,18.67
2018-04-30T01:09:48.955Z,14.97
2018-04-30T01:12:18.847Z,16.10
2018-04-30T01:14:46.931Z,15.63
2018-04-30T01:17:15.041Z,18.85
2018-04-30T01:19:43.823Z,20.03
2018-04-30T01:22:11.953Z,19.37
2018-04-30T01:24:40.047Z,17.27
2018-04-30T01:27:08.494Z,20.27
2018-04-30T01:29:42.160Z,21.10
2018-04-30T01:32:10.239Z,20.57
2018-04-30T01:34:38.335Z,17.13
2018-04-30T01:37:07.312Z,20.10
2018-04-30T01:39:35.403Z,18.00
2018-04-30T01:42:03.484Z,18.57
2018-04-30T01:44:31.587Z,18.57
2018-04-30T01:46:59.689Z,15.43
2018-04-30T01:49:27.785Z,19.77
2018-04-30T01:51:55.892Z,18.17
2018-04-30T01:54:24.027Z,16.67
2018-04-30T01:56:52.128Z,15.67
2018-04-30T01:59:20.211Z,16.90
2018-04-30T02:01:48.695Z,16.98
2018-04-30T02:04:16.810Z,15.13
2018-04-30T02:06:44.943Z,17.77
2018-04-30T02:09:13.063Z,17.30
2018-04-30T02:11:41.163Z,15.60
2018-04-30T02:14:09.253Z,14.77
2018-04-30T02:16:37.784Z,15.80
2018-04-30T02:19:05.890Z,14.00
2018-04-30T02:21:33.984Z,13.63
2018-04-30T02:24:02.070Z,13.82
2018-04-30T02:26:31.906Z,17.02
2018-04-30T02:29:01.411Z,13.03
2018-04-30T02:31:29.528Z,12.47
2018-04-30T02:33:57.672Z,16.27
2018-04-30T02:36:25.754Z,15.00
2018-04-30T02:38:53.848Z,15.27
2018-04-30T02:41:21.964Z,14.37
2018-04-30T02:43:50.057Z,11.88
2018-04-30T02:46:18.142Z,13.67
2018-04-30T02:48:51.896Z,11.30
2018-04-30T02:51:19.990Z,11.50
2018-04-30T02:53:48.085Z,13.33
2018-04-30T02:56:16.204Z,13.73
2018-04-30T02:58:44.304Z,14.00
2018-04-30T03:01:12.393Z,17.07
2018-04-30T03:03:40.503Z,14.80
2018-04-30T03:06:08.608Z,14.30
2018-04-30T03:08:36.727Z,13.90
2018-04-30T03:11:04.820Z,12.57
2018-04-30T03:13:32.959Z,11.98
2018-04-30T03:16:01.033Z,11.70
2018-04-30T03:18:29.179Z,10.27
2018-04-30T03:20:57.466Z,12.37
2018-04-30T03:23:25.536Z,8.85
2018-04-30T03:25:54.296Z,13.30
2018-04-30T03:28:22.383Z,9.53
2018-04-30T03:30:50.473Z,8.97
2018-04-30T03:33:18.595Z,11.17
2018-04-30T03:35:46.682Z,7.73
2018-04-30T03:38:14.810Z,7.33
2018-04-30T03:40:42.929Z,11.82
2018-04-30T03:43:11.015Z,8.13
2018-04-30T03:45:39.151Z,7.80
2018-04-30T03:48:07.267Z,10.32
2018-04-30T03:50:35.343Z,10.40
2018-04-30T03:53:03.415Z,9.43
2018-04-30T03:55:31.495Z,11.10
2018-04-30T03:57:59.575Z,11.47
2018-04-30T04:00:39.525Z,9.15
2018-04-30T04:03:19.989Z,10.93
2018-04-30T04:05:59.909Z,13.25
2018-04-30T04:08:28.029Z,13.20
2018-04-30T04:10:56.137Z,10.10
2018-04-30T04:13:24.243Z,8.77
2018-04-30T04:15:52.345Z,11.12
2018-04-30T04:18:20.515Z,12.13
2018-04-30T04:20:48.635Z,11.95
2018-04-30T04:23:16.791Z,11.03
2018-04-30T04:25:45.780Z,12.37
2018-04-30T04:28:13.882Z,12.10
2018-04-30T04:30:42.712Z,13.03
2018-04-30T04:33:10.809Z,15.87
2018-04-30T04:35:38.907Z,16.43
2018-04-30T04:38:06.996Z,12.37
2018-04-30T04:40:35.088Z,14.17
2018-04-30T04:43:03.186Z,13.37
2018-04-30T04:45:31.268Z,12.10
2018-04-30T04:47:59.352Z,11.53
2018-04-30T04:50:33.227Z,11.00
2018-04-30T04:53:01.336Z,13.70
2018-04-30T04:55:30.173Z,13.67
2018-04-30T04:57:58.305Z,11.67
2018-04-30T05:00:26.384Z,10.73
2018-04-30T05:02:54.463Z,12.13
2018-04-30T05:05:23.480Z,12.20
2018-04-30T05:07:51.574Z,15.13
2018-04-30T05:10:19.717Z,13.03
2018-04-30T05:12:47.896Z,13.80
2018-04-30T05:15:15.974Z,15.73
2018-04-30T05:17:44.063Z,13.10
2018-04-30T05:20:12.175Z,14.07
2018-04-30T05:22:40.268Z,12.37
2018-04-30T05:25:08.347Z,13.90
2018-04-30T05:27:36.484Z,14.07
2018-04-30T05:30:04.574Z,14.23
2018-04-30T05:32:32.716Z,16.33
2018-04-30T05:35:00.812Z,15.50
2018-04-30T05:37:28.896Z,14.60
2018-04-30T05:39:57.000Z,19.43
2018-04-30T05:42:25.137Z,15.00
2018-04-30T05:44:53.224Z,20.63
2018-04-30T05:47:26.742Z,14.70
2018-04-30T05:50:00.300Z,14.93
2018-04-30T05:52:29.023Z,15.30
2018-04-30T05:54:57.118Z,15.07
2018-04-30T05:57:25.198Z,17.40
2018-04-30T05:59:53.290Z,15.47
2018-04-30T06:02:21.836Z,15.70
2018-04-30T06:04:49.951Z,18.77
2018-04-30T06:07:18.395Z,14.77
2018-04-30T06:09:46.499Z,18.00
2018-04-30T06:12:14.621Z,16.90
2018-04-30T06:14:42.869Z,12.07
2018-04-30T06:17:10.949Z,19.30
2018-04-30T06:19:39.570Z,16.63
2018-04-30T06:22:08.262Z,14.13
2018-04-30T06:24:36.474Z,15.90
2018-04-30T06:27:04.766Z,14.27
2018-04-30T06:29:32.842Z,16.50
2018-04-30T06:32:00.928Z,17.60
2018-04-30T06:34:29.042Z,18.77
2018-04-30T06:36:57.543Z,15.70
2018-04-30T06:52:25.660Z,18.20
2018-04-30T06:54:53.745Z,19.63
2018-04-30T06:57:21.843Z,20.07
2018-04-30T06:59:49.957Z,14.33
2018-04-30T07:15:18.165Z,20.23
2018-04-30T07:17:46.265Z,18.53
2018-04-30T07:20:14.350Z,15.17
2018-04-30T07:22:42.451Z,15.73
2018-04-30T07:25:11.357Z,19.07
2018-04-30T07:27:39.554Z,16.20
2018-04-30T07:30:07.854Z,16.50
2018-04-30T07:32:35.984Z,13.30
2018-04-30T07:35:04.078Z,16.17
2018-04-30T07:37:32.178Z,14.67
2018-04-30T07:40:00.580Z,15.13
2018-04-30T07:42:28.778Z,16.73
2018-04-30T07:44:56.866Z,14.43
2018-04-30T07:47:24.974Z,15.53
2018-04-30T07:49:53.088Z,16.70
2018-04-30T07:52:21.182Z,17.73
2018-04-30T07:54:49.268Z,16.67
2018-04-30T07:57:17.459Z,18.17
2018-04-30T07:59:45.469Z,16.23
2018-04-30T08:02:13.557Z,17.67
2018-04-30T08:04:41.651Z,17.37
2018-04-30T08:07:09.784Z,14.17
2018-04-30T08:09:37.878Z,12.10
2018-04-30T08:12:05.977Z,15.20
2018-04-30T08:14:34.077Z,16.43
2018-04-30T08:17:02.170Z,11.73
2018-04-30T08:19:30.266Z,15.40
2018-04-30T08:21:58.360Z,18.27
2018-04-30T08:24:26.948Z,16.27
2018-04-30T08:26:55.983Z,16.73
2018-04-30T08:29:24.031Z,14.50
2018-04-30T08:31:52.149Z,11.63
2018-04-30T08:47:20.304Z,12.70
2018-04-30T08:49:48.395Z,13.27
2018-04-30T08:52:16.495Z,13.50
2018-04-30T08:54:44.603Z,13.93
2018-04-30T08:57:12.767Z,14.97
2018-04-30T08:59:40.870Z,12.57
2018-04-30T09:02:09.970Z,13.50
2018-04-30T09:04:38.143Z,16.17
2018-04-30T09:07:06.277Z,13.53
2018-04-30T09:09:34.405Z,13.40
2018-04-30T09:12:02.729Z,14.80
2018-04-30T09:14:30.794Z,15.70
2018-04-30T09:16:59.275Z,16.57
2018-04-30T09:19:27.350Z,15.93
2018-04-30T09:21:55.461Z,17.77
2018-04-30T09:24:23.554Z,16.80
2018-04-30T09:26:51.638Z,18.33
2018-04-30T09:29:19.739Z,15.73
2018-04-30T09:31:47.850Z,17.43
2018-04-30T09:34:16.100Z,20.30
2018-04-30T09:36:44.169Z,18.53
2018-04-30T09:39:12.262Z,22.73
2018-04-30T09:41:40.403Z,17.57
2018-04-30T09:44:08.503Z,19.73
2018-04-30T09:46:36.591Z,19.03
2018-04-30T09:49:04.717Z,20.07
2018-04-30T09:51:32.811Z,18.43
2018-04-30T09:54:00.895Z,20.13
2018-04-30T09:56:34.569Z,14.60
2018-04-30T09:59:02.659Z,16.93
2018-04-30T10:01:30.737Z,20.77
2018-04-30T10:03:58.835Z,15.97
2018-04-30T10:06:26.923Z,15.10
2018-04-30T10:08:55.000Z,14.57
2018-04-30T10:11:23.108Z,14.90
2018-04-30T10:13:51.192Z,13.43
2018-04-30T10:16:25.037Z,13.37
2018-04-30T10:18:58.585Z,12.40
2018-04-30T10:21:26.675Z,12.83
2018-04-30T10:23:54.878Z,13.83
2018-04-30T10:26:22.898Z,13.17
2018-04-30T10:28:50.987Z,14.57
2018-04-30T10:31:19.085Z,14.97
2018-04-30T10:33:47.167Z,14.17
2018-04-30T10:36:15.527Z,12.23
2018-04-30T10:38:43.639Z,16.20
2018-04-30T10:41:12.207Z,14.70
2018-04-30T10:43:40.298Z,12.87
2018-04-30T10:46:08.522Z,13.50
2018-04-30T10:48:37.174Z,15.00
2018-04-30T10:51:05.301Z,13.90
2018-04-30T10:53:33.378Z,13.80
2018-04-30T10:56:01.471Z,15.77
2018-04-30T10:58:29.555Z,15.53
2018-04-30T11:00:57.696Z,14.10
2018-04-30T11:03:25.784Z,14.33
2018-04-30T11:05:54.240Z,14.00
2018-04-30T11:08:22.329Z,15.60
2018-04-30T11:10:50.412Z,14.20
2018-04-30T11:13:18.497Z,18.03
2018-04-30T11:15:46.623Z,17.63
2018-04-30T11:18:14.709Z,14.27
2018-04-30T11:20:42.803Z,16.83
2018-04-30T11:23:10.903Z,14.90
2018-04-30T11:25:38.992Z,14.47
2018-04-30T11:28:07.990Z,14.60
2018-04-30T11:30:36.107Z,17.70
2018-04-30T11:33:04.192Z,16.80
2018-04-30T11:35:32.617Z,13.90
2018-04-30T11:38:00.729Z,16.73
2018-04-30T11:40:28.812Z,18.80
2018-04-30T11:42:57.208Z,18.87
2018-04-30T11:45:25.332Z,16.43
2018-04-30T11:47:53.427Z,18.83
2018-04-30T11:50:21.531Z,18.00
2018-04-30T11:52:49.610Z,16.13
2018-04-30T11:55:17.756Z,14.47
2018-04-30T11:57:46.146Z,16.13
2018-04-30T12:00:14.552Z,19.50
2018-04-30T12:02:42.635Z,20.27
2018-04-30T12:05:10.737Z,20.40
2018-04-30T12:07:38.833Z,19.83
2018-04-30T12:10:06.924Z,19.07
2018-04-30T12:12:35.035Z,19.13
2018-04-30T12:15:03.165Z,17.80
2018-04-30T12:17:37.501Z,22.77
2018-04-30T12:20:06.392Z,19.67
2018-04-30T12:22:35.781Z,22.93
2018-04-30T12:25:03.878Z,25.87
2018-04-30T12:27:31.972Z,23.00
2018-04-30T12:30:01.006Z,23.83
2018-04-30T12:32:29.109Z,20.60
2018-04-30T12:34:57.190Z,24.20
2018-04-30T12:37:25.279Z,23.67
2018-04-30T12:39:53.381Z,21.90
2018-04-30T12:42:21.473Z,25.40
2018-04-30T12:44:49.557Z,25.27
2018-04-30T12:47:19.383Z,24.00
2018-04-30T12:49:47.508Z,27.37
2018-04-30T12:52:15.549Z,22.87
2018-04-30T12:54:44.515Z,26.70
2018-04-30T12:57:12.646Z,23.80
2018-04-30T12:59:41.058Z,23.80
2018-04-30T13:02:09.138Z,24.47
2018-04-30T13:04:37.588Z,25.67
2018-04-30T13:07:05.726Z,23.50
2018-04-30T13:09:33.763Z,36.30
2018-04-30T13:12:02.084Z,27.50
2018-04-30T13:14:30.173Z,27.93
2018-04-30T13:16:58.266Z,7.00
2018-04-30T13:19:26.367Z,3.33
2018-04-30T13:21:54.435Z,3.87
2018-04-30T13:24:22.508Z,3.10
2018-04-30T13:26:50.907Z,3.63
2018-04-30T13:29:19.011Z,2.83
2018-04-30T13:31:47.151Z,3.43
2018-04-30T13:34:15.864Z,3.50
2018-04-30T13:36:43.936Z,3.37
2018-04-30T13:39:12.051Z,3.77
2018-04-30T13:41:41.066Z,3.87
2018-04-30T13:44:09.148Z,4.37
2018-04-30T13:46:37.535Z,4.57
2018-04-30T13:49:05.684Z,5.53
2018-04-30T13:51:33.995Z,3.87
2018-04-30T13:54:07.657Z,4.20
2018-04-30T13:56:35.765Z,4.53
2018-04-30T13:59:03.895Z,6.20
2018-04-30T14:01:31.951Z,4.17
2018-04-30T14:06:35.933Z,6.13
2018-04-30T14:09:04.530Z,4.10
2018-04-30T14:11:32.603Z,4.40
2018-04-30T14:14:00.757Z,3.83
2018-04-30T14:16:29.300Z,4.70
2018-04-30T14:18:57.408Z,4.97
2018-04-30T14:21:26.295Z,9.77
2018-04-30T14:23:56.519Z,5.50
2018-04-30T14:26:24.693Z,4.30
2018-04-30T14:28:53.323Z,4.33
2018-04-30T14:31:21.447Z,5.23
2018-04-30T14:33:49.515Z,4.27
2018-04-30T14:36:18.415Z,3.57
2018-04-30T14:38:46.494Z,3.40
2018-04-30T14:41:14.597Z,3.47
2018-04-30T14:43:42.678Z,4.63
2018-04-30T14:46:10.747Z,3.73
2018-04-30T14:48:38.847Z,3.77
2018-04-30T14:51:06.947Z,4.53
2018-04-30T14:53:35.050Z,4.33
2018-04-30T14:56:03.144Z,4.87
2018-04-30T14:58:32.104Z,4.40
2018-04-30T15:01:05.128Z,4.37
2018-04-30T15:03:33.215Z,3.80
2018-04-30T15:06:01.287Z,3.57
2018-04-30T15:08:29.726Z,5.87
2018-04-30T15:10:57.800Z,3.30
2018-04-30T15:13:25.878Z,4.47
2018-04-30T15:15:54.986Z,3.90
2018-04-30T15:18:23.115Z,2.90
2018-04-30T15:20:51.187Z,3.27
2018-04-30T15:23:19.287Z,4.33
2018-04-30T15:25:47.367Z,2.77
2018-04-30T15:28:15.490Z,2.70
2018-04-30T15:30:49.691Z,2.73
2018-04-30T15:33:17.786Z,3.00
2018-04-30T15:35:45.950Z,2.80
2018-04-30T15:38:13.977Z,2.17
2018-04-30T15:40:42.069Z,2.17
2018-04-30T15:43:10.233Z,2.53
2018-04-30T15:45:38.411Z,2.40
2018-04-30T15:48:06.495Z,1.30
2018-04-30T15:50:35.307Z,1.63
2018-04-30T15:53:03.395Z,1.80
2018-04-30T15:55:31.474Z,1.93
2018-04-30T15:57:59.911Z,1.90
2018-04-30T16:00:28.055Z,2.13
2018-04-30T16:02:56.124Z,2.33
2018-04-30T16:05:25.045Z,2.03
2018-04-30T16:07:59.299Z,1.70
2018-04-30T16:10:27.385Z,1.70
2018-04-30T16:12:55.787Z,2.30
2018-04-30T16:15:24.578Z,1.30
2018-04-30T16:20:23.737Z,2.30
2018-04-30T16:22:51.745Z,2.63
2018-04-30T16:25:20.557Z,2.90
2018-04-30T16:27:48.630Z,2.07
2018-04-30T16:30:16.776Z,2.13
2018-04-30T16:32:45.352Z,2.67
2018-04-30T16:35:13.429Z,2.43
2018-04-30T16:37:41.538Z,2.57
2018-04-30T16:42:57.947Z,1.77
2018-04-30T16:45:26.058Z,2.80
2018-04-30T16:47:54.139Z,2.20
2018-04-30T16:50:22.240Z,2.40
2018-04-30T16:52:50.340Z,1.80
2018-04-30T16:55:18.424Z,1.40
2018-04-30T16:57:51.970Z,1.57
2018-04-30T17:00:21.781Z,2.10
2018-04-30T17:02:51.381Z,1.13
2018-04-30T17:05:19.456Z,1.20
2018-04-30T17:20:47.578Z,1.20
2018-04-30T17:23:15.678Z,1.70
2018-04-30T17:25:43.758Z,2.27
2018-04-30T17:28:11.856Z,1.53
2018-04-30T17:30:39.972Z,1.67
2018-04-30T17:33:08.079Z,2.25
2018-04-30T17:35:36.168Z,1.47
2018-04-30T17:38:04.277Z,1.20
2018-04-30T17:40:32.372Z,1.80
2018-04-30T17:43:00.453Z,1.00
2018-04-30T17:45:29.338Z,1.20
2018-04-30T17:47:57.439Z,1.10
2018-04-30T17:50:26.178Z,2.20
2018-04-30T17:52:54.261Z,1.00
2018-04-30T17:55:22.370Z,2.70
2018-04-30T17:57:50.443Z,0.90
2018-04-30T18:00:18.510Z,1.40
2018-04-30T18:02:46.603Z,1.30
2018-04-30T18:05:14.678Z,1.45
2018-04-30T18:07:42.768Z,2.10
2018-04-30T18:10:11.142Z,1.60
2018-04-30T18:12:39.310Z,0.90
2018-04-30T18:15:07.336Z,0.80
2018-04-30T18:17:35.590Z,0.80
2018-04-30T18:20:03.666Z,0.70
2018-04-30T18:22:31.723Z,1.70
2018-04-30T18:24:59.808Z,0.80
2018-04-30T18:27:27.891Z,0.90
2018-04-30T18:29:56.152Z,0.90
2018-04-30T18:32:24.254Z,1.00
2018-04-30T18:34:52.323Z,0.80
2018-04-30T18:37:20.425Z,0.80
2018-04-30T18:39:48.799Z,1.17
2018-04-30T18:42:17.003Z,1.53
2018-04-30T18:44:45.068Z,1.37
2018-04-30T18:47:13.143Z,1.40
2018-04-30T18:49:41.247Z,2.10
2018-04-30T18:52:09.348Z,3.37
2018-04-30T18:54:37.584Z,3.87
2018-04-30T18:57:05.680Z,3.95
2018-04-30T18:59:34.936Z,5.22
2018-04-30T19:02:02.995Z,4.43
2018-04-30T19:04:31.084Z,5.68
2018-04-30T19:06:59.183Z,5.77
2018-04-30T19:09:28.644Z,4.45
2018-04-30T19:11:56.718Z,6.97
2018-04-30T19:14:24.869Z,5.82
2018-04-30T19:16:52.918Z,7.60
2018-04-30T19:29:06.023Z,7.65
2018-04-30T19:31:34.164Z,7.93
2018-04-30T19:34:02.243Z,7.85
2018-04-30T19:36:30.359Z,9.88
2018-04-30T19:38:58.453Z,8.48
2018-04-30T19:41:26.547Z,8.07
2018-04-30T19:43:54.667Z,7.45
2018-04-30T19:46:22.768Z,8.80
2018-04-30T19:48:50.845Z,9.27
2018-04-30T19:51:19.019Z,7.93
2018-04-30T19:53:47.134Z,4.82
2018-04-30T19:56:15.267Z,4.40
2018-04-30T19:58:43.392Z,5.07
2018-04-30T20:01:11.422Z,5.95
2018-04-30T20:03:39.507Z,5.15
2018-04-30T20:06:07.627Z,8.75
2018-04-30T20:08:35.730Z,6.97
2018-04-30T20:11:04.464Z,9.13
2018-04-30T20:13:32.605Z,4.57
2018-04-30T20:16:00.628Z,5.37
2018-04-30T20:18:28.725Z,8.02
2018-04-30T20:20:56.822Z,7.53
2018-04-30T20:23:25.010Z,5.35
2018-04-30T20:25:53.089Z,7.97
2018-04-30T20:28:21.160Z,9.00
2018-04-30T20:30:49.250Z,5.00
2018-04-30T20:33:17.338Z,3.67
2018-04-30T20:35:45.411Z,6.63
2018-04-30T20:38:13.845Z,13.80
2018-04-30T20:40:41.948Z,6.18
2018-04-30T20:43:10.016Z,6.33
2018-04-30T20:45:38.910Z,7.03
2018-04-30T20:48:07.635Z,12.82
2018-04-30T20:50:35.721Z,6.85
2018-04-30T20:53:04.830Z,6.93
2018-04-30T20:55:33.362Z,4.43
2018-04-30T20:58:01.453Z,7.32
2018-04-30T21:00:29.600Z,6.65
2018-04-30T21:02:58.700Z,8.98
2018-04-30T21:05:26.775Z,12.55
2018-04-30T21:07:54.885Z,10.15
2018-04-30T21:10:23.513Z,8.93
2018-04-30T21:12:51.703Z,11.00
2018-04-30T21:15:19.695Z,12.88
2018-04-30T21:17:47.788Z,9.02
2018-04-30T21:20:15.887Z,6.22
2018-04-30T21:22:43.973Z,8.20
2018-04-30T21:25:12.061Z,9.30
2018-04-30T21:27:40.151Z,7.87
2018-04-30T21:30:08.259Z,4.47
2018-04-30T21:32:36.349Z,8.52
2018-04-30T21:48:04.436Z,6.53
2018-04-30T21:50:32.534Z,5.70
2018-04-30T21:53:00.639Z,5.37
2018-04-30T21:55:29.392Z,4.37
2018-04-30T21:57:57.841Z,5.57
2018-04-30T22:00:27.778Z,6.28
2018-04-30T22:02:55.873Z,11.95
2018-04-30T22:05:24.212Z,2.72
2018-04-30T22:07:52.282Z,6.62
2018-04-30T22:10:20.374Z,5.82
2018-04-30T22:12:48.449Z,4.50
2018-04-30T22:15:16.523Z,5.93
2018-04-30T22:17:44.881Z,5.18
2018-04-30T22:20:12.961Z,4.60
2018-04-30T22:22:41.027Z,7.60
2018-04-30T22:25:09.119Z,2.10
2018-04-30T22:27:37.199Z,4.12
2018-04-30T22:43:05.407Z,11.80
2018-04-30T22:45:33.499Z,8.32
2018-04-30T22:48:01.571Z,3.10
2018-04-30T22:50:29.669Z,3.95
2018-04-30T22:52:57.752Z,8.93
2018-04-30T22:55:25.854Z,7.35
2018-04-30T22:57:53.946Z,8.43
2018-04-30T23:00:22.881Z,7.05
2018-04-30T23:02:50.960Z,3.62
2018-04-30T23:05:19.147Z,3.83
2018-04-30T23:07:47.947Z,5.60
2018-04-30T23:10:17.090Z,4.05
2018-04-30T23:12:45.149Z,8.25
2018-04-30T23:15:13.218Z,4.30
2018-04-30T23:17:42.026Z,11.80
2018-04-30T23:20:10.099Z,5.20
2018-04-30T23:22:38.214Z,6.87
2018-04-30T23:25:06.288Z,10.32
2018-04-30T23:27:34.356Z,9.43
2018-04-30T23:30:02.427Z,6.78
2018-04-30T23:32:30.522Z,6.15
2018-04-30T23:34:58.591Z,6.32
2018-04-30T23:37:27.583Z,4.55
2018-04-30T23:39:55.678Z,6.00
2018-04-30T23:42:23.743Z,6.20
2018-04-30T23:44:51.827Z,4.82
2018-04-30T23:47:19.955Z,5.97
2018-04-30T23:49:48.035Z,5.55
2018-04-30T23:52:16.151Z,5.65
2018-04-30T23:54:44.235Z,4.65
2018-04-30T23:57:12.307Z,5.45
2018-04-30T23:59:40.411Z,3.10
